Landri Sales, Brazil
Current Conditions -  °F | °C
As of 5:00 AM on Wednesday 26 Nov 2014 (Local Time) from SBTE Reporting Station
Broken Clouds Broken Clouds  
Wind Chill: 79°   Ceiling: 8000
Heat Index: 82°   Visibility: 6mi
Dew Point: 72°   Wind: 5mph
Humidity: 78%   Direction: 360°N
Pressure: 29.8"   Gusts: NA
Location:  7.27°S, 43.93°W
Report Text: SBTE 260800Z 36004KT 9999 FEW020 BKN080 26/22 Q1009
Loading
Personal Weather Stations






























Interactive Weather Map New forecast layout! Learn more

10-Day Weather Forecast

Advertisements
Track Severe Weather on mobile